createdAt,value
2022-08-07T00:01:44.053Z,101194.96
2022-08-07T00:04:31.184Z,101196.38
2022-08-07T00:07:01.647Z,101195.52
2022-08-07T00:09:35.936Z,101198.50
2022-08-07T00:12:07.812Z,101196.19
2022-08-07T00:14:44.193Z,101202.33
2022-08-07T00:17:16.881Z,101203.37
2022-08-07T00:20:01.379Z,101197.56
2022-08-07T00:22:35.601Z,101202.52
2022-08-07T00:25:16.458Z,101198.61
2022-08-07T00:27:53.199Z,101199.10
2022-08-07T00:30:27.604Z,101195.19
2022-08-07T00:33:00.011Z,101202.23
2022-08-07T00:35:32.098Z,101200.27
2022-08-07T00:38:06.373Z,101200.23
2022-08-07T00:40:40.474Z,101198.30
2022-08-07T00:44:00.694Z,101196.88
2022-08-07T00:46:05.140Z,101187.37
2022-08-07T00:48:42.383Z,101181.52
2022-08-07T00:51:13.003Z,101184.70
2022-08-07T00:53:50.245Z,101190.48
2022-08-07T00:56:23.018Z,101192.20
2022-08-07T00:59:01.459Z,101186.09
2022-08-07T01:01:44.012Z,101186.89
2022-08-07T01:04:24.820Z,101187.47
2022-08-07T01:06:57.734Z,101187.52
2022-08-07T01:10:05.090Z,101194.47
2022-08-07T01:12:30.221Z,101193.26
2022-08-07T01:15:04.235Z,101194.13
2022-08-07T01:17:37.559Z,101198.31
2022-08-07T01:20:16.668Z,101194.02
2022-08-07T01:23:00.522Z,101193.84
2022-08-07T01:25:55.626Z,101198.98
2022-08-07T01:28:27.572Z,101194.46
2022-08-07T01:31:00.135Z,101191.17
2022-08-07T01:33:55.105Z,101193.67
2022-08-07T01:36:33.248Z,101193.13
2022-08-07T01:39:09.775Z,101197.19
2022-08-07T01:41:40.812Z,101195.58
2022-08-07T01:44:25.871Z,101198.92
2022-08-07T01:46:57.172Z,101198.38
2022-08-07T01:49:34.638Z,101195.38
2022-08-07T01:52:07.830Z,101199.27
2022-08-07T01:54:43.199Z,101201.35
2022-08-07T01:57:30.877Z,101200.48
2022-08-07T02:00:12.856Z,101197.80
2022-08-07T02:03:19.248Z,101198.86
2022-08-07T02:05:59.828Z,101202.54
2022-08-07T02:08:35.584Z,101202.33
2022-08-07T02:11:10.714Z,101211.30
2022-08-07T02:14:02.952Z,101204.27
2022-08-07T02:16:33.949Z,101202.50
2022-08-07T02:20:04.213Z,101200.58
2022-08-07T02:22:01.687Z,101202.73
2022-08-07T02:24:33.956Z,101199.92
2022-08-07T02:27:06.908Z,101203.47
2022-08-07T02:29:48.592Z,101200.84
2022-08-07T02:32:26.982Z,101201.42
2022-08-07T02:35:09.050Z,101198.98
2022-08-07T02:37:44.020Z,101198.29
2022-08-07T02:40:30.432Z,101198.66
2022-08-07T02:43:08.957Z,101200.43
2022-08-07T02:46:00.952Z,101198.49
2022-08-07T02:48:34.946Z,101197.14
2022-08-07T02:51:14.283Z,101199.25
2022-08-07T02:54:01.987Z,101203.70
2022-08-07T02:56:35.065Z,101207.58
2022-08-07T02:59:10.687Z,101210.09
2022-08-07T03:01:47.264Z,101209.61
2022-08-07T03:04:24.580Z,101213.55
2022-08-07T03:06:55.973Z,101215.20
2022-08-07T03:09:43.897Z,101214.92
2022-08-07T03:12:22.219Z,101212.23
2022-08-07T03:14:56.271Z,101215.00
2022-08-07T03:17:28.637Z,101211.46
2022-08-07T03:20:01.009Z,101215.23
2022-08-07T03:22:34.285Z,101214.19
2022-08-07T03:25:11.352Z,101212.96
2022-08-07T03:28:09.025Z,101216.41
2022-08-07T03:30:38.384Z,101218.18
2022-08-07T03:33:10.554Z,101219.76
2022-08-07T03:35:50.283Z,101225.02
2022-08-07T03:38:29.589Z,101225.31
2022-08-07T03:41:03.361Z,101221.17
2022-08-07T03:43:36.150Z,101225.10
2022-08-07T03:46:10.487Z,101224.84
2022-08-07T03:49:02.394Z,101225.26
2022-08-07T03:51:47.518Z,101226.02
2022-08-07T03:54:35.377Z,101226.42
2022-08-07T03:58:34.774Z,101229.35
2022-08-07T04:00:04.548Z,101230.27
2022-08-07T04:02:35.539Z,101228.92
2022-08-07T04:05:13.118Z,101227.91
2022-08-07T04:07:49.734Z,101230.98
2022-08-07T04:10:21.827Z,101230.18
2022-08-07T04:12:56.643Z,101233.88
2022-08-07T04:15:29.400Z,101237.00
2022-08-07T04:18:57.425Z,101237.54
2022-08-07T04:20:54.845Z,101239.67
2022-08-07T04:23:43.891Z,101236.16
2022-08-07T04:26:21.820Z,101237.14
2022-08-07T04:28:54.034Z,101232.54
2022-08-07T04:31:39.031Z,101231.14
2022-08-07T04:34:24.193Z,101235.52
2022-08-07T04:37:08.141Z,101238.84
2022-08-07T04:39:50.775Z,101237.03
2022-08-07T04:42:28.745Z,101242.08
2022-08-07T04:45:02.912Z,101239.79
2022-08-07T04:47:57.211Z,101243.77
2022-08-07T04:50:38.741Z,101238.55
2022-08-07T04:53:40.188Z,101247.41
2022-08-07T04:58:24.429Z,101250.65
2022-08-07T05:00:10.859Z,101253.55
2022-08-07T05:02:16.902Z,101257.06
2022-08-07T05:05:01.382Z,101254.42
2022-08-07T05:07:48.388Z,101254.42
2022-08-07T05:10:29.268Z,101263.63
2022-08-07T05:14:44.943Z,101256.45
2022-08-07T05:15:57.547Z,101259.11
2022-08-07T05:18:32.093Z,101268.30
2022-08-07T05:21:05.732Z,101268.69
2022-08-07T05:23:40.944Z,101269.40
2022-08-07T05:26:23.717Z,101264.67
2022-08-07T05:28:57.682Z,101266.80
2022-08-07T05:31:34.536Z,101263.99
2022-08-07T05:34:11.055Z,101263.65
2022-08-07T05:36:49.149Z,101260.64
2022-08-07T05:40:05.414Z,101259.92
2022-08-07T05:42:33.323Z,101262.86
2022-08-07T05:45:26.127Z,101259.30
2022-08-07T05:48:03.819Z,101262.27
2022-08-07T05:50:35.975Z,101261.52
2022-08-07T05:54:11.924Z,101267.92
2022-08-07T05:56:05.734Z,101268.09
2022-08-07T05:58:39.061Z,101269.77
2022-08-07T06:01:14.081Z,101269.20
2022-08-07T06:03:57.200Z,101270.14
2022-08-07T06:06:33.737Z,101274.14
2022-08-07T06:09:05.374Z,101270.25
2022-08-07T06:11:37.924Z,101265.66
2022-08-07T06:14:11.677Z,101266.26
2022-08-07T06:16:56.377Z,101270.00
2022-08-07T06:19:49.890Z,101269.21
2022-08-07T06:22:23.982Z,101273.73
2022-08-07T06:25:02.968Z,101269.59
2022-08-07T06:27:59.926Z,101273.40
2022-08-07T06:30:36.090Z,101270.36
2022-08-07T06:33:15.762Z,101272.94
2022-08-07T06:36:06.694Z,101276.26
2022-08-07T06:38:39.546Z,101274.81
2022-08-07T06:42:02.318Z,101280.09
2022-08-07T06:44:25.134Z,101279.29
2022-08-07T06:47:10.577Z,101282.06
2022-08-07T06:49:50.984Z,101285.62
2022-08-07T06:52:31.727Z,101280.05
2022-08-07T06:55:33.377Z,101280.38
2022-08-07T06:58:04.966Z,101275.00
2022-08-07T07:00:42.666Z,101279.41
2022-08-07T07:03:17.216Z,101277.21
2022-08-07T07:06:05.103Z,101273.48
2022-08-07T07:08:39.935Z,101279.63
2022-08-07T07:12:08.357Z,101277.77
2022-08-07T07:14:09.910Z,101272.08
2022-08-07T07:16:51.124Z,101272.36
2022-08-07T07:19:55.547Z,101273.46
2022-08-07T07:22:36.724Z,101271.61
2022-08-07T07:26:35.369Z,101267.79
2022-08-07T07:28:42.537Z,101266.95
2022-08-07T07:31:08.138Z,101267.75
2022-08-07T07:33:41.838Z,101266.91
2022-08-07T07:36:17.418Z,101259.56
2022-08-07T07:38:50.500Z,101258.10
2022-08-07T07:41:30.876Z,101254.56
2022-08-07T07:44:25.906Z,101252.72
2022-08-07T07:47:16.072Z,101253.20
2022-08-07T07:50:32.645Z,101253.04
2022-08-07T07:52:47.368Z,101246.50
2022-08-07T07:55:21.678Z,101247.17
2022-08-07T07:57:58.465Z,101244.91
2022-08-07T08:00:34.475Z,101239.80
2022-08-07T08:03:16.770Z,101244.15
2022-08-07T08:06:02.530Z,101246.94
2022-08-07T08:08:37.042Z,101245.16
2022-08-07T08:11:16.005Z,101241.78
2022-08-07T08:13:53.713Z,101245.30
2022-08-07T08:16:29.866Z,101247.52
2022-08-07T08:19:09.945Z,101245.41
2022-08-07T08:22:07.721Z,101247.98
2022-08-07T08:25:09.470Z,101249.05
2022-08-07T08:27:57.589Z,101245.40
2022-08-07T08:30:37.588Z,101244.91
2022-08-07T08:33:24.023Z,101248.52
2022-08-07T08:35:56.726Z,101246.27
2022-08-07T08:38:38.142Z,101244.98
2022-08-07T08:41:25.932Z,101248.00
2022-08-07T08:44:09.429Z,101239.80
2022-08-07T08:46:49.232Z,101245.71
2022-08-07T08:49:33.116Z,101244.41
2022-08-07T08:52:32.162Z,101243.99
2022-08-07T08:55:53.241Z,101245.00
2022-08-07T08:58:20.410Z,101244.58
2022-08-07T09:01:14.720Z,101249.95
2022-08-07T09:03:56.750Z,101250.43
2022-08-07T09:06:40.304Z,101252.36
2022-08-07T09:09:33.080Z,101242.98
2022-08-07T09:12:31.196Z,101240.59
2022-08-07T09:16:22.378Z,101242.83
2022-08-07T09:18:23.593Z,101236.50
2022-08-07T09:21:05.001Z,101236.48
2022-08-07T09:24:33.627Z,101238.66
2022-08-07T09:26:50.941Z,101226.54
2022-08-07T09:30:04.319Z,101231.49
2022-08-07T09:32:43.391Z,101227.73
2022-08-07T09:36:03.506Z,101229.08
2022-08-07T09:38:26.484Z,101228.04
2022-08-07T09:41:07.264Z,101223.25
2022-08-07T09:44:06.115Z,101216.20
2022-08-07T09:47:52.127Z,101215.23
2022-08-07T09:50:02.860Z,101208.05
2022-08-07T09:52:52.211Z,101200.85
2022-08-07T09:56:02.684Z,101201.67
2022-08-07T09:58:51.380Z,101208.11
2022-08-07T10:01:52.185Z,101205.98
2022-08-07T10:04:57.344Z,101200.41
2022-08-07T10:07:52.287Z,101200.70
2022-08-07T10:11:00.246Z,101193.23
2022-08-07T10:14:01.360Z,101187.66
2022-08-07T10:16:55.286Z,101195.22
2022-08-07T10:19:41.891Z,101190.84
2022-08-07T10:22:33.876Z,101181.56
2022-08-07T10:25:20.915Z,101178.15
2022-08-07T10:28:19.957Z,101179.73
2022-08-07T10:31:06.039Z,101173.80
2022-08-07T10:34:15.407Z,101169.66
2022-08-07T10:37:03.975Z,101164.64
2022-08-07T10:40:03.295Z,101165.08
2022-08-07T10:42:46.631Z,101164.97
2022-08-07T10:45:57.384Z,101162.61
2022-08-07T10:48:37.670Z,101158.56
2022-08-07T10:51:16.442Z,101158.58
2022-08-07T10:54:14.673Z,101153.15
2022-08-07T10:56:58.169Z,101153.38
2022-08-07T10:59:47.242Z,101153.91
2022-08-07T11:02:34.336Z,101149.02
2022-08-07T11:05:44.840Z,101147.23
2022-08-07T11:08:34.599Z,101145.80
2022-08-07T11:11:10.095Z,101137.70
2022-08-07T11:14:44.523Z,101135.90
2022-08-07T11:16:39.042Z,101136.13
2022-08-07T11:19:15.190Z,101129.20
2022-08-07T11:22:03.371Z,101126.50
2022-08-07T11:24:45.633Z,101131.80
2022-08-07T11:28:02.036Z,101128.19
2022-08-07T11:30:41.404Z,101118.58
2022-08-07T11:33:18.529Z,101115.91
2022-08-07T11:36:20.548Z,101118.92
2022-08-07T11:39:07.298Z,101112.27
2022-08-07T11:42:01.812Z,101108.14
2022-08-07T11:44:52.666Z,101110.57
2022-08-07T11:47:56.430Z,101107.45
2022-08-07T11:50:58.007Z,101109.41
2022-08-07T11:53:43.380Z,101110.53
2022-08-07T11:56:53.096Z,101109.77
2022-08-07T12:00:11.186Z,101104.11
2022-08-07T12:03:44.910Z,101099.90
2022-08-07T12:06:51.533Z,101097.13
2022-08-07T12:09:37.641Z,101096.33
2022-08-07T12:12:12.154Z,101095.60
2022-08-07T12:14:53.873Z,101090.31
2022-08-07T12:17:34.286Z,101094.52
2022-08-07T12:20:30.051Z,101091.36
2022-08-07T12:23:21.551Z,101087.98
2022-08-07T12:26:29.212Z,101087.81
2022-08-07T12:29:08.363Z,101087.34
2022-08-07T12:32:04.065Z,101081.64
2022-08-07T12:34:37.844Z,101080.43
2022-08-07T12:37:16.525Z,101079.05
2022-08-07T12:39:57.499Z,101066.70
2022-08-07T12:42:31.934Z,101069.91
2022-08-07T12:45:08.245Z,101065.95
2022-08-07T12:47:49.167Z,101063.04
2022-08-07T12:50:34.440Z,101063.55
2022-08-07T12:53:17.745Z,101057.27
2022-08-07T12:56:02.354Z,101051.77
2022-08-07T12:58:39.500Z,101048.02
2022-08-07T13:01:32.633Z,101047.20
2022-08-07T13:04:34.242Z,101043.38
2022-08-07T13:08:11.975Z,101041.55
2022-08-07T13:10:43.999Z,101039.19
2022-08-07T13:13:50.282Z,101038.39
2022-08-07T13:16:30.650Z,101033.70
2022-08-07T13:19:11.497Z,101033.61
2022-08-07T13:22:04.004Z,101033.51
2022-08-07T13:24:52.441Z,101024.80
2022-08-07T13:28:05.565Z,101017.48
2022-08-07T13:30:40.145Z,101019.96
2022-08-07T13:34:31.595Z,101015.08
2022-08-07T13:36:31.608Z,101012.70
2022-08-07T13:39:28.372Z,101015.14
2022-08-07T13:42:10.497Z,101008.08
2022-08-07T13:44:43.202Z,101000.38
2022-08-07T13:48:06.221Z,100999.84
2022-08-07T13:50:32.956Z,100991.88
2022-08-07T13:53:23.892Z,100993.08
2022-08-07T13:55:57.511Z,100987.41
2022-08-07T13:58:50.394Z,100985.95
2022-08-07T14:01:33.247Z,100979.45
2022-08-07T14:04:24.256Z,100975.36
2022-08-07T14:07:06.208Z,100978.48
2022-08-07T14:10:03.043Z,100973.76
2022-08-07T14:12:49.176Z,100970.02
2022-08-07T14:15:32.025Z,100967.98
2022-08-07T14:18:23.774Z,100961.82
2022-08-07T14:21:21.131Z,100959.73
2022-08-07T14:24:03.697Z,100952.83
2022-08-07T14:26:39.291Z,100956.19
2022-08-07T14:32:08.194Z,100951.05
2022-08-07T14:37:39.271Z,100947.48
2022-08-07T14:40:26.615Z,100951.87
2022-08-07T14:43:55.186Z,100945.43
2022-08-07T14:52:03.779Z,100937.94
2022-08-07T14:54:35.716Z,100942.89
2022-08-07T14:57:11.300Z,100937.73
2022-08-07T15:02:56.922Z,100930.13
2022-08-07T15:05:32.880Z,100925.86
2022-08-07T15:08:08.905Z,100925.10
2022-08-07T15:10:58.783Z,100926.77
2022-08-07T15:19:19.938Z,100923.80
2022-08-07T15:22:22.112Z,100916.94
2022-08-07T15:25:17.285Z,100916.41
2022-08-07T15:28:33.092Z,100913.90
2022-08-07T15:33:43.050Z,100908.64
2022-08-07T15:36:15.182Z,100906.95
2022-08-07T15:39:10.624Z,100906.75
2022-08-07T15:42:45.653Z,100899.45
2022-08-07T15:48:01.468Z,100902.79
2022-08-07T15:53:53.162Z,100902.77
2022-08-07T15:56:33.223Z,100900.98
2022-08-07T15:59:06.805Z,100897.18
2022-08-07T16:02:01.770Z,100902.75
2022-08-07T16:04:36.940Z,100901.91
2022-08-07T16:08:29.139Z,100894.73
2022-08-07T16:10:14.976Z,100895.55
2022-08-07T16:13:05.507Z,100898.17
2022-08-07T16:15:58.958Z,100892.13
2022-08-07T16:18:50.782Z,100888.51
2022-08-07T16:22:01.419Z,100887.75
2022-08-07T16:24:36.568Z,100891.40
2022-08-07T16:27:18.287Z,100890.44
2022-08-07T16:30:32.033Z,100889.93
2022-08-07T16:34:06.527Z,100895.18
2022-08-07T16:36:22.172Z,100894.75
2022-08-07T16:39:40.584Z,100890.84
2022-08-07T16:42:36.593Z,100894.30
2022-08-07T16:49:04.213Z,100890.82
2022-08-07T16:51:54.227Z,100889.11
2022-08-07T16:54:55.345Z,100885.93
2022-08-07T16:58:01.492Z,100894.23
2022-08-07T17:00:34.643Z,100889.98
2022-08-07T17:03:17.860Z,100888.31
2022-08-07T17:06:29.333Z,100891.21
2022-08-07T17:09:15.839Z,100890.08
2022-08-07T17:12:35.973Z,100890.33
2022-08-07T17:15:09.007Z,100893.07
2022-08-07T17:17:50.124Z,100893.59
2022-08-07T17:20:32.833Z,100898.95
2022-08-07T17:23:18.342Z,100899.09
2022-08-07T17:26:23.486Z,100894.95
2022-08-07T17:29:09.584Z,100895.17
2022-08-07T17:32:28.365Z,100899.70
2022-08-07T17:35:49.853Z,100903.99
2022-08-07T17:38:11.333Z,100902.21
2022-08-07T17:41:12.407Z,100904.16
2022-08-07T17:44:02.638Z,100904.36
2022-08-07T17:46:44.199Z,100905.48
2022-08-07T17:49:23.809Z,100903.80
2022-08-07T17:52:01.134Z,100913.52
2022-08-07T17:54:53.494Z,100916.84
2022-08-07T17:57:32.076Z,100917.96
2022-08-07T18:00:27.468Z,100920.27
2022-08-07T18:03:18.273Z,100919.60
2022-08-07T18:06:01.773Z,100915.71
2022-08-07T18:09:00.621Z,100918.20
2022-08-07T18:12:12.002Z,100919.98
2022-08-07T18:14:37.667Z,100921.10
2022-08-07T18:18:47.013Z,100925.21
2022-08-07T18:21:03.599Z,100923.68
2022-08-07T18:23:43.069Z,100929.23
2022-08-07T18:26:26.828Z,100935.02
2022-08-07T18:30:04.263Z,100933.21
2022-08-07T18:32:25.646Z,100937.36
2022-08-07T18:35:17.564Z,100940.30
2022-08-07T18:38:59.083Z,100939.02
2022-08-07T18:41:16.863Z,100936.69
2022-08-07T18:44:01.492Z,100944.62
2022-08-07T18:46:42.887Z,100946.41
2022-08-07T18:50:35.235Z,100950.87
2022-08-07T18:52:54.171Z,100953.16
2022-08-07T18:55:42.346Z,100956.86
2022-08-07T18:58:57.963Z,100958.14
2022-08-07T19:02:18.291Z,100962.20
2022-08-07T19:04:57.712Z,100958.04
2022-08-07T19:07:36.067Z,100960.37
2022-08-07T19:10:31.393Z,100963.23
2022-08-07T19:13:10.154Z,100967.58
2022-08-07T19:16:05.634Z,100969.02
2022-08-07T19:18:46.466Z,100975.84
2022-08-07T19:21:44.071Z,100972.09
2022-08-07T19:24:30.669Z,100982.27
2022-08-07T19:28:29.401Z,100983.42
2022-08-07T19:30:56.821Z,100977.41
2022-08-07T19:32:59.657Z,100977.20
2022-08-07T19:35:33.758Z,100983.54
2022-08-07T19:38:16.643Z,100986.16
2022-08-07T19:40:51.525Z,100985.77
2022-08-07T19:43:50.075Z,100982.84
2022-08-07T19:46:19.314Z,100985.66
2022-08-07T19:48:54.697Z,100983.38
2022-08-07T19:51:52.343Z,100984.23
2022-08-07T19:54:31.146Z,100980.23
2022-08-07T19:58:04.683Z,100980.80
2022-08-07T20:00:10.534Z,100981.92
2022-08-07T20:02:51.557Z,100979.73
2022-08-07T20:05:28.680Z,100979.88
2022-08-07T20:08:05.633Z,100979.06
2022-08-07T20:10:55.074Z,100985.02
2022-08-07T20:13:41.885Z,100991.65
2022-08-07T20:16:34.923Z,100995.83
2022-08-07T20:19:10.471Z,101000.35
2022-08-07T20:21:47.564Z,100999.14
2022-08-07T20:24:22.910Z,101002.28
2022-08-07T20:26:57.195Z,100998.88
2022-08-07T20:29:48.965Z,100999.55
2022-08-07T20:32:40.048Z,100998.89
2022-08-07T20:35:15.809Z,101000.54
2022-08-07T20:37:57.659Z,100998.20
2022-08-07T20:40:34.879Z,100998.52
2022-08-07T20:43:09.743Z,100999.45
2022-08-07T20:46:25.666Z,101000.86
2022-08-07T20:49:54.319Z,100999.05
2022-08-07T20:51:40.303Z,101000.11
2022-08-07T20:54:15.299Z,100997.98
2022-08-07T20:57:04.507Z,101002.38
2022-08-07T21:00:07.389Z,100998.17
2022-08-07T21:05:52.802Z,100990.96
2022-08-07T21:08:39.239Z,100994.85
2022-08-07T21:11:15.580Z,100994.35
2022-08-07T21:14:16.835Z,100994.88
2022-08-07T21:17:06.490Z,101000.02
2022-08-07T21:19:51.218Z,100996.27
2022-08-07T21:22:36.500Z,100993.84
2022-08-07T21:25:13.377Z,100994.86
2022-08-07T21:28:07.857Z,100998.48
2022-08-07T21:30:56.496Z,100999.38
2022-08-07T21:33:41.696Z,101001.48
2022-08-07T21:36:31.391Z,100998.85
2022-08-07T21:39:45.109Z,101004.70
2022-08-07T21:42:42.829Z,101008.06
2022-08-07T21:46:08.867Z,101008.24
2022-08-07T21:48:27.662Z,101005.58
2022-08-07T21:51:19.836Z,101001.53
2022-08-07T21:54:10.671Z,101002.53
2022-08-07T21:56:48.989Z,101011.38
2022-08-07T22:00:02.685Z,101008.17
2022-08-07T22:02:32.207Z,101010.90
2022-08-07T22:05:07.206Z,101016.10
2022-08-07T22:07:58.787Z,101014.91
2022-08-07T22:10:35.612Z,101018.35
2022-08-07T22:13:13.572Z,101021.48
2022-08-07T22:16:42.750Z,101016.38
2022-08-07T22:18:48.431Z,101020.33
2022-08-07T22:21:22.055Z,101020.04
2022-08-07T22:23:58.111Z,101022.36
2022-08-07T22:26:44.188Z,101021.70
2022-08-07T22:29:37.786Z,101023.41
2022-08-07T22:32:21.195Z,101024.11
2022-08-07T22:34:57.362Z,101015.42
2022-08-07T22:38:04.190Z,101017.55
2022-08-07T22:40:41.135Z,101012.70
2022-08-07T22:43:14.534Z,101009.52
2022-08-07T22:46:21.341Z,101010.98
2022-08-07T22:49:09.506Z,101006.14
2022-08-07T22:52:12.998Z,101011.88
2022-08-07T22:55:30.991Z,101009.48
2022-08-07T22:58:12.020Z,101006.72
2022-08-07T23:00:55.166Z,101005.56
2022-08-07T23:03:57.961Z,101005.59
2022-08-07T23:06:59.021Z,101004.96
2022-08-07T23:10:06.535Z,101003.27
2022-08-07T23:12:46.912Z,101004.11
2022-08-07T23:16:06.515Z,100999.98
2022-08-07T23:18:32.327Z,101001.79
2022-08-07T23:21:29.904Z,101000.89
2022-08-07T23:24:21.123Z,100999.39
2022-08-07T23:27:07.744Z,100998.86
2022-08-07T23:30:38.667Z,100995.76
2022-08-07T23:34:35.327Z,100994.23
2022-08-07T23:36:35.729Z,100995.09
2022-08-07T23:39:14.101Z,100993.46
2022-08-07T23:42:04.050Z,100997.29
2022-08-07T23:44:54.079Z,100997.98
2022-08-07T23:47:42.292Z,101000.80
2022-08-07T23:50:33.589Z,100999.92
2022-08-07T23:53:16.733Z,101003.48
2022-08-07T23:55:58.223Z,100998.21
2022-08-07T23:58:45.198Z,100996.70
